sensor_id;sensor_type;location;lat;lon;timestamp;temperature;humidity
54684;DHT22;40582;53.100;6.686;2023-08-07T00:00:30;15.60;99.90
54684;DHT22;40582;53.100;6.686;2023-08-07T00:02:55;15.60;99.90
54684;DHT22;40582;53.100;6.686;2023-08-07T00:05:21;15.60;99.90
54684;DHT22;40582;53.100;6.686;2023-08-07T00:07:47;15.70;99.90
54684;DHT22;40582;53.100;6.686;2023-08-07T00:10:13;15.80;99.90
54684;DHT22;40582;53.100;6.686;2023-08-07T00:12:40;15.80;99.90
54684;DHT22;40582;53.100;6.686;2023-08-07T00:15:06;15.90;99.90
54684;DHT22;40582;53.100;6.686;2023-08-07T00:17:32;15.90;99.90
54684;DHT22;40582;53.100;6.686;2023-08-07T00:19:57;15.90;99.90
54684;DHT22;40582;53.100;6.686;2023-08-07T00:22:23;15.90;99.90
54684;DHT22;40582;53.100;6.686;2023-08-07T00:24:50;15.90;99.90
54684;DHT22;40582;53.100;6.686;2023-08-07T00:27:16;16.00;99.90
54684;DHT22;40582;53.100;6.686;2023-08-07T00:29:42;15.90;99.90
54684;DHT22;40582;53.100;6.686;2023-08-07T00:32:07;15.90;99.90
54684;DHT22;40582;53.100;6.686;2023-08-07T00:34:34;16.00;99.90
54684;DHT22;40582;53.100;6.686;2023-08-07T00:37:00;15.90;99.90
54684;DHT22;40582;53.100;6.686;2023-08-07T00:39:25;15.90;99.90
54684;DHT22;40582;53.100;6.686;2023-08-07T00:41:51;15.90;99.90
54684;DHT22;40582;53.100;6.686;2023-08-07T00:44:17;15.80;99.90
54684;DHT22;40582;53.100;6.686;2023-08-07T00:46:43;15.80;99.90
54684;DHT22;40582;53.100;6.686;2023-08-07T00:49:10;15.70;99.90
54684;DHT22;40582;53.100;6.686;2023-08-07T00:51:37;15.70;99.90
54684;DHT22;40582;53.100;6.686;2023-08-07T00:54:05;15.60;99.90
54684;DHT22;40582;53.100;6.686;2023-08-07T00:56:31;15.60;99.90
54684;DHT22;40582;53.100;6.686;2023-08-07T00:58:58;15.60;99.90
54684;DHT22;40582;53.100;6.686;2023-08-07T01:01:24;15.60;99.90
54684;DHT22;40582;53.100;6.686;2023-08-07T01:03:50;15.60;99.90
54684;DHT22;40582;53.100;6.686;2023-08-07T01:06:16;15.60;99.90
54684;DHT22;40582;53.100;6.686;2023-08-07T01:08:42;15.70;99.90
54684;DHT22;40582;53.100;6.686;2023-08-07T01:11:42;15.60;99.90
54684;DHT22;40582;53.100;6.686;2023-08-07T01:16:52;15.60;99.90
54684;DHT22;40582;53.100;6.686;2023-08-07T01:19:36;15.60;99.90
54684;DHT22;40582;53.100;6.686;2023-08-07T01:22:12;15.60;99.90
54684;DHT22;40582;53.100;6.686;2023-08-07T01:24:40;15.60;99.90
54684;DHT22;40582;53.100;6.686;2023-08-07T01:32:23;15.50;99.90
54684;DHT22;40582;53.100;6.686;2023-08-07T01:34:51;15.50;99.90
54684;DHT22;40582;53.100;6.686;2023-08-07T01:37:18;15.50;99.90
54684;DHT22;40582;53.100;6.686;2023-08-07T01:39:46;15.50;99.90
54684;DHT22;40582;53.100;6.686;2023-08-07T01:42:12;15.50;99.90
54684;DHT22;40582;53.100;6.686;2023-08-07T01:44:37;15.50;99.90
54684;DHT22;40582;53.100;6.686;2023-08-07T01:47:03;15.40;99.90
54684;DHT22;40582;53.100;6.686;2023-08-07T01:49:29;15.30;99.90
54684;DHT22;40582;53.100;6.686;2023-08-07T01:51:55;15.20;99.90
54684;DHT22;40582;53.100;6.686;2023-08-07T01:54:21;15.20;99.90
54684;DHT22;40582;53.100;6.686;2023-08-07T01:56:46;15.10;99.90
54684;DHT22;40582;53.100;6.686;2023-08-07T01:59:12;15.10;99.90
54684;DHT22;40582;53.100;6.686;2023-08-07T02:01:38;15.00;99.90
54684;DHT22;40582;53.100;6.686;2023-08-07T02:04:03;15.00;99.90
54684;DHT22;40582;53.100;6.686;2023-08-07T02:06:29;15.00;99.90
54684;DHT22;40582;53.100;6.686;2023-08-07T02:08:55;15.00;99.90
54684;DHT22;40582;53.100;6.686;2023-08-07T02:11:20;15.00;99.90
54684;DHT22;40582;53.100;6.686;2023-08-07T02:13:46;14.90;99.90
54684;DHT22;40582;53.100;6.686;2023-08-07T02:16:12;14.90;99.90
54684;DHT22;40582;53.100;6.686;2023-08-07T02:18:37;15.00;99.90
54684;DHT22;40582;53.100;6.686;2023-08-07T02:21:03;15.00;99.90
54684;DHT22;40582;53.100;6.686;2023-08-07T02:23:28;15.00;99.90
54684;DHT22;40582;53.100;6.686;2023-08-07T02:25:54;15.00;99.90
54684;DHT22;40582;53.100;6.686;2023-08-07T02:28:20;15.10;99.90
54684;DHT22;40582;53.100;6.686;2023-08-07T02:30:46;15.10;99.90
54684;DHT22;40582;53.100;6.686;2023-08-07T02:33:16;15.20;99.90
54684;DHT22;40582;53.100;6.686;2023-08-07T02:35:42;15.10;99.90
54684;DHT22;40582;53.100;6.686;2023-08-07T02:38:08;15.10;99.90
54684;DHT22;40582;53.100;6.686;2023-08-07T02:40:33;15.20;99.90
54684;DHT22;40582;53.100;6.686;2023-08-07T02:42:59;15.10;99.90
54684;DHT22;40582;53.100;6.686;2023-08-07T02:45:25;15.10;99.90
54684;DHT22;40582;53.100;6.686;2023-08-07T02:47:51;15.10;99.90
54684;DHT22;40582;53.100;6.686;2023-08-07T02:50:16;15.10;99.90
54684;DHT22;40582;53.100;6.686;2023-08-07T02:52:42;15.10;99.90
54684;DHT22;40582;53.100;6.686;2023-08-07T02:55:08;15.00;99.90
54684;DHT22;40582;53.100;6.686;2023-08-07T02:57:34;15.00;99.90
54684;DHT22;40582;53.100;6.686;2023-08-07T02:59:59;14.90;99.90
54684;DHT22;40582;53.100;6.686;2023-08-07T03:02:25;14.90;99.90
54684;DHT22;40582;53.100;6.686;2023-08-07T03:04:51;14.90;99.90
54684;DHT22;40582;53.100;6.686;2023-08-07T03:07:16;15.00;99.90
54684;DHT22;40582;53.100;6.686;2023-08-07T03:09:45;15.00;99.90
54684;DHT22;40582;53.100;6.686;2023-08-07T03:12:11;15.10;99.90
54684;DHT22;40582;53.100;6.686;2023-08-07T03:14:37;15.10;99.90
54684;DHT22;40582;53.100;6.686;2023-08-07T03:17:03;15.10;99.90
54684;DHT22;40582;53.100;6.686;2023-08-07T03:19:28;15.10;99.90
54684;DHT22;40582;53.100;6.686;2023-08-07T03:21:54;15.10;99.90
54684;DHT22;40582;53.100;6.686;2023-08-07T03:24:20;15.10;99.90
54684;DHT22;40582;53.100;6.686;2023-08-07T03:26:45;15.10;99.90
54684;DHT22;40582;53.100;6.686;2023-08-07T03:29:12;15.10;99.90
54684;DHT22;40582;53.100;6.686;2023-08-07T03:31:38;15.00;99.90
54684;DHT22;40582;53.100;6.686;2023-08-07T03:34:04;15.00;99.90
54684;DHT22;40582;53.100;6.686;2023-08-07T03:36:29;15.00;99.90
54684;DHT22;40582;53.100;6.686;2023-08-07T03:38:55;14.90;99.90
54684;DHT22;40582;53.100;6.686;2023-08-07T03:41:21;14.90;99.90
54684;DHT22;40582;53.100;6.686;2023-08-07T03:43:46;14.80;99.90
54684;DHT22;40582;53.100;6.686;2023-08-07T03:46:13;14.80;99.90
54684;DHT22;40582;53.100;6.686;2023-08-07T03:48:38;14.80;99.90
54684;DHT22;40582;53.100;6.686;2023-08-07T03:51:05;14.90;99.90
54684;DHT22;40582;53.100;6.686;2023-08-07T03:53:33;14.80;99.90
54684;DHT22;40582;53.100;6.686;2023-08-07T03:55:59;14.80;99.90
54684;DHT22;40582;53.100;6.686;2023-08-07T03:58:25;14.80;99.90
54684;DHT22;40582;53.100;6.686;2023-08-07T04:00:51;14.80;99.90
54684;DHT22;40582;53.100;6.686;2023-08-07T04:03:18;14.70;99.90
54684;DHT22;40582;53.100;6.686;2023-08-07T04:05:44;14.80;99.90
54684;DHT22;40582;53.100;6.686;2023-08-07T04:08:09;14.90;99.90
54684;DHT22;40582;53.100;6.686;2023-08-07T04:10:35;14.90;99.90
54684;DHT22;40582;53.100;6.686;2023-08-07T04:13:01;15.00;99.90
54684;DHT22;40582;53.100;6.686;2023-08-07T04:15:26;15.00;99.90
54684;DHT22;40582;53.100;6.686;2023-08-07T04:17:52;15.10;99.90
54684;DHT22;40582;53.100;6.686;2023-08-07T04:20:18;15.10;99.90
54684;DHT22;40582;53.100;6.686;2023-08-07T04:22:45;15.10;99.90
54684;DHT22;40582;53.100;6.686;2023-08-07T04:25:12;15.10;99.90
54684;DHT22;40582;53.100;6.686;2023-08-07T04:27:38;15.10;99.90
54684;DHT22;40582;53.100;6.686;2023-08-07T04:30:07;15.10;99.90
54684;DHT22;40582;53.100;6.686;2023-08-07T04:32:33;15.10;99.90
54684;DHT22;40582;53.100;6.686;2023-08-07T04:34:59;15.10;99.90
54684;DHT22;40582;53.100;6.686;2023-08-07T04:37:24;15.10;99.90
54684;DHT22;40582;53.100;6.686;2023-08-07T04:39:50;15.10;99.90
54684;DHT22;40582;53.100;6.686;2023-08-07T04:42:16;15.10;99.90
54684;DHT22;40582;53.100;6.686;2023-08-07T04:44:41;15.10;99.90
54684;DHT22;40582;53.100;6.686;2023-08-07T04:47:07;15.00;99.90
54684;DHT22;40582;53.100;6.686;2023-08-07T04:49:33;15.00;99.90
54684;DHT22;40582;53.100;6.686;2023-08-07T04:51:58;15.00;99.90
54684;DHT22;40582;53.100;6.686;2023-08-07T04:54:24;15.00;99.90
54684;DHT22;40582;53.100;6.686;2023-08-07T04:56:50;15.00;99.90
54684;DHT22;40582;53.100;6.686;2023-08-07T04:59:15;15.00;99.90
54684;DHT22;40582;53.100;6.686;2023-08-07T05:01:41;15.00;99.90
54684;DHT22;40582;53.100;6.686;2023-08-07T05:04:07;15.10;99.90
54684;DHT22;40582;53.100;6.686;2023-08-07T05:06:32;15.20;99.90
54684;DHT22;40582;53.100;6.686;2023-08-07T05:08:58;15.20;99.90
54684;DHT22;40582;53.100;6.686;2023-08-07T05:11:24;15.20;99.90
54684;DHT22;40582;53.100;6.686;2023-08-07T05:13:49;15.10;99.90
54684;DHT22;40582;53.100;6.686;2023-08-07T05:16:15;15.20;99.90
54684;DHT22;40582;53.100;6.686;2023-08-07T05:18:42;15.20;99.90
54684;DHT22;40582;53.100;6.686;2023-08-07T05:21:08;15.30;99.90
54684;DHT22;40582;53.100;6.686;2023-08-07T05:23:34;15.50;99.90
54684;DHT22;40582;53.100;6.686;2023-08-07T05:26:00;15.80;99.90
54684;DHT22;40582;53.100;6.686;2023-08-07T05:28:25;15.90;99.90
54684;DHT22;40582;53.100;6.686;2023-08-07T05:30:51;16.00;99.90
54684;DHT22;40582;53.100;6.686;2023-08-07T05:33:17;16.00;99.90
54684;DHT22;40582;53.100;6.686;2023-08-07T05:35:42;16.00;99.90
54684;DHT22;40582;53.100;6.686;2023-08-07T05:38:08;16.00;99.90
54684;DHT22;40582;53.100;6.686;2023-08-07T05:40:34;15.90;99.90
54684;DHT22;40582;53.100;6.686;2023-08-07T05:43:02;16.10;99.90
54684;DHT22;40582;53.100;6.686;2023-08-07T05:45:28;16.10;99.90
54684;DHT22;40582;53.100;6.686;2023-08-07T05:47:53;16.20;99.90
54684;DHT22;40582;53.100;6.686;2023-08-07T05:50:19;16.50;99.90
54684;DHT22;40582;53.100;6.686;2023-08-07T05:52:45;16.50;99.90
54684;DHT22;40582;53.100;6.686;2023-08-07T05:55:11;16.80;99.90
54684;DHT22;40582;53.100;6.686;2023-08-07T05:57:36;17.10;99.90
54684;DHT22;40582;53.100;6.686;2023-08-07T06:00:03;17.20;99.90
54684;DHT22;40582;53.100;6.686;2023-08-07T06:02:28;17.60;99.90
54684;DHT22;40582;53.100;6.686;2023-08-07T06:04:54;18.30;99.90
54684;DHT22;40582;53.100;6.686;2023-08-07T06:07:20;19.60;99.90
54684;DHT22;40582;53.100;6.686;2023-08-07T06:09:45;19.20;99.90
54684;DHT22;40582;53.100;6.686;2023-08-07T06:12:11;18.80;99.90
54684;DHT22;40582;53.100;6.686;2023-08-07T06:14:37;18.50;99.90
54684;DHT22;40582;53.100;6.686;2023-08-07T06:17:04;18.30;99.90
54684;DHT22;40582;53.100;6.686;2023-08-07T06:19:29;18.20;99.90
54684;DHT22;40582;53.100;6.686;2023-08-07T06:21:55;18.10;99.90
54684;DHT22;40582;53.100;6.686;2023-08-07T06:24:21;17.90;99.90
54684;DHT22;40582;53.100;6.686;2023-08-07T06:26:47;17.70;99.90
54684;DHT22;40582;53.100;6.686;2023-08-07T06:29:13;17.60;99.90
54684;DHT22;40582;53.100;6.686;2023-08-07T06:31:38;17.30;99.90
54684;DHT22;40582;53.100;6.686;2023-08-07T06:34:04;17.10;99.90
54684;DHT22;40582;53.100;6.686;2023-08-07T06:36:30;17.00;99.90
54684;DHT22;40582;53.100;6.686;2023-08-07T06:38:55;17.00;99.90
54684;DHT22;40582;53.100;6.686;2023-08-07T06:41:21;17.00;99.90
54684;DHT22;40582;53.100;6.686;2023-08-07T06:43:47;17.00;99.90
54684;DHT22;40582;53.100;6.686;2023-08-07T06:46:12;17.10;99.90
54684;DHT22;40582;53.100;6.686;2023-08-07T06:48:38;17.20;99.90
54684;DHT22;40582;53.100;6.686;2023-08-07T06:51:04;18.40;99.90
54684;DHT22;40582;53.100;6.686;2023-08-07T06:53:29;19.30;99.90
54684;DHT22;40582;53.100;6.686;2023-08-07T06:55:55;20.30;99.90
54684;DHT22;40582;53.100;6.686;2023-08-07T06:58:21;20.00;99.90
54684;DHT22;40582;53.100;6.686;2023-08-07T07:00:46;19.50;99.90
54684;DHT22;40582;53.100;6.686;2023-08-07T07:03:12;19.00;99.90
54684;DHT22;40582;53.100;6.686;2023-08-07T07:05:38;18.60;99.90
54684;DHT22;40582;53.100;6.686;2023-08-07T07:08:04;18.40;99.90
54684;DHT22;40582;53.100;6.686;2023-08-07T07:10:30;18.40;99.90
54684;DHT22;40582;53.100;6.686;2023-08-07T07:12:56;19.40;99.90
54684;DHT22;40582;53.100;6.686;2023-08-07T07:15:21;19.90;99.90
54684;DHT22;40582;53.100;6.686;2023-08-07T07:17:47;20.00;99.90
54684;DHT22;40582;53.100;6.686;2023-08-07T07:20:13;19.70;99.90
54684;DHT22;40582;53.100;6.686;2023-08-07T07:22:39;19.30;99.90
54684;DHT22;40582;53.100;6.686;2023-08-07T07:25:05;18.70;99.90
54684;DHT22;40582;53.100;6.686;2023-08-07T07:27:31;18.20;99.90
54684;DHT22;40582;53.100;6.686;2023-08-07T07:29:56;17.80;99.90
54684;DHT22;40582;53.100;6.686;2023-08-07T07:32:22;17.50;99.90
54684;DHT22;40582;53.100;6.686;2023-08-07T07:34:48;17.50;99.90
54684;DHT22;40582;53.100;6.686;2023-08-07T07:37:13;17.80;99.90
54684;DHT22;40582;53.100;6.686;2023-08-07T07:39:39;18.20;99.90
54684;DHT22;40582;53.100;6.686;2023-08-07T07:42:06;18.10;99.90
54684;DHT22;40582;53.100;6.686;2023-08-07T07:44:32;17.90;99.90
54684;DHT22;40582;53.100;6.686;2023-08-07T07:46:59;17.70;99.90
54684;DHT22;40582;53.100;6.686;2023-08-07T07:49:25;17.60;99.90
54684;DHT22;40582;53.100;6.686;2023-08-07T07:51:50;17.70;99.90
54684;DHT22;40582;53.100;6.686;2023-08-07T07:54:16;17.80;99.90
54684;DHT22;40582;53.100;6.686;2023-08-07T07:56:42;18.10;99.90
54684;DHT22;40582;53.100;6.686;2023-08-07T07:59:08;18.20;99.90
54684;DHT22;40582;53.100;6.686;2023-08-07T08:01:34;18.50;99.90
54684;DHT22;40582;53.100;6.686;2023-08-07T08:04:00;18.90;99.90
54684;DHT22;40582;53.100;6.686;2023-08-07T08:06:25;19.10;99.90
54684;DHT22;40582;53.100;6.686;2023-08-07T08:08:51;19.10;99.90
54684;DHT22;40582;53.100;6.686;2023-08-07T08:11:17;18.80;99.90
54684;DHT22;40582;53.100;6.686;2023-08-07T08:13:43;18.40;99.90
54684;DHT22;40582;53.100;6.686;2023-08-07T08:16:08;18.10;99.90
54684;DHT22;40582;53.100;6.686;2023-08-07T08:18:34;17.60;99.90
54684;DHT22;40582;53.100;6.686;2023-08-07T08:21:00;17.30;99.90
54684;DHT22;40582;53.100;6.686;2023-08-07T08:23:25;17.20;99.90
54684;DHT22;40582;53.100;6.686;2023-08-07T08:25:51;17.30;99.90
54684;DHT22;40582;53.100;6.686;2023-08-07T08:28:17;17.30;99.90
54684;DHT22;40582;53.100;6.686;2023-08-07T08:30:43;17.20;99.90
54684;DHT22;40582;53.100;6.686;2023-08-07T08:33:09;17.20;99.90
54684;DHT22;40582;53.100;6.686;2023-08-07T08:35:38;17.20;99.90
54684;DHT22;40582;53.100;6.686;2023-08-07T08:38:04;17.20;99.90
54684;DHT22;40582;53.100;6.686;2023-08-07T08:40:30;17.30;99.90
54684;DHT22;40582;53.100;6.686;2023-08-07T08:42:57;18.20;99.90
54684;DHT22;40582;53.100;6.686;2023-08-07T08:45:25;18.90;99.90
54684;DHT22;40582;53.100;6.686;2023-08-07T08:47:51;19.50;99.90
54684;DHT22;40582;53.100;6.686;2023-08-07T08:50:20;19.90;99.90
54684;DHT22;40582;53.100;6.686;2023-08-07T08:52:46;19.90;99.90
54684;DHT22;40582;53.100;6.686;2023-08-07T08:55:13;19.90;99.90
54684;DHT22;40582;53.100;6.686;2023-08-07T08:57:39;20.40;99.90
54684;DHT22;40582;53.100;6.686;2023-08-07T09:00:09;20.90;99.90
54684;DHT22;40582;53.100;6.686;2023-08-07T09:02:48;21.20;99.90
54684;DHT22;40582;53.100;6.686;2023-08-07T09:05:18;21.40;99.90
54684;DHT22;40582;53.100;6.686;2023-08-07T09:07:48;21.70;99.90
54684;DHT22;40582;53.100;6.686;2023-08-07T09:10:14;21.50;99.90
54684;DHT22;40582;53.100;6.686;2023-08-07T09:12:47;21.20;99.90
54684;DHT22;40582;53.100;6.686;2023-08-07T09:15:15;20.70;99.90
54684;DHT22;40582;53.100;6.686;2023-08-07T09:17:42;20.80;99.90
54684;DHT22;40582;53.100;6.686;2023-08-07T09:20:09;21.00;99.90
54684;DHT22;40582;53.100;6.686;2023-08-07T09:22:40;21.00;99.90
54684;DHT22;40582;53.100;6.686;2023-08-07T09:25:07;21.00;99.90
54684;DHT22;40582;53.100;6.686;2023-08-07T09:27:33;21.00;99.90
54684;DHT22;40582;53.100;6.686;2023-08-07T09:29:59;21.00;99.90
54684;DHT22;40582;53.100;6.686;2023-08-07T09:32:25;20.90;99.90
54684;DHT22;40582;53.100;6.686;2023-08-07T09:34:51;20.90;99.90
54684;DHT22;40582;53.100;6.686;2023-08-07T09:37:19;21.00;99.90
54684;DHT22;40582;53.100;6.686;2023-08-07T09:39:46;20.90;99.90
54684;DHT22;40582;53.100;6.686;2023-08-07T09:42:16;20.80;99.90
54684;DHT22;40582;53.100;6.686;2023-08-07T09:44:42;20.70;99.90
54684;DHT22;40582;53.100;6.686;2023-08-07T09:47:13;20.80;99.90
54684;DHT22;40582;53.100;6.686;2023-08-07T09:49:42;21.10;99.90
54684;DHT22;40582;53.100;6.686;2023-08-07T09:52:09;21.40;99.90
54684;DHT22;40582;53.100;6.686;2023-08-07T09:54:36;21.60;99.40
54684;DHT22;40582;53.100;6.686;2023-08-07T09:57:02;21.60;99.40
54684;DHT22;40582;53.100;6.686;2023-08-07T09:59:28;21.30;98.60
54684;DHT22;40582;53.100;6.686;2023-08-07T10:01:57;21.30;99.70
54684;DHT22;40582;53.100;6.686;2023-08-07T10:04:25;21.20;99.90
54684;DHT22;40582;53.100;6.686;2023-08-07T10:06:51;21.20;99.90
54684;DHT22;40582;53.100;6.686;2023-08-07T10:09:18;21.40;99.50
54684;DHT22;40582;53.100;6.686;2023-08-07T10:11:44;21.30;98.90
54684;DHT22;40582;53.100;6.686;2023-08-07T10:14:11;21.10;98.40
54684;DHT22;40582;53.100;6.686;2023-08-07T10:16:39;21.10;98.50
54684;DHT22;40582;53.100;6.686;2023-08-07T10:19:06;21.30;98.80
54684;DHT22;40582;53.100;6.686;2023-08-07T10:21:38;21.30;98.70
54684;DHT22;40582;53.100;6.686;2023-08-07T10:24:04;21.20;98.70
54684;DHT22;40582;53.100;6.686;2023-08-07T10:26:32;21.00;99.00
54684;DHT22;40582;53.100;6.686;2023-08-07T10:29:00;20.80;99.10
54684;DHT22;40582;53.100;6.686;2023-08-07T10:31:27;20.80;99.30
54684;DHT22;40582;53.100;6.686;2023-08-07T10:33:53;20.90;99.20
54684;DHT22;40582;53.100;6.686;2023-08-07T10:36:19;20.90;98.90
54684;DHT22;40582;53.100;6.686;2023-08-07T10:38:49;21.10;99.10
54684;DHT22;40582;53.100;6.686;2023-08-07T10:41:15;20.90;98.60
54684;DHT22;40582;53.100;6.686;2023-08-07T10:43:44;20.80;99.10
54684;DHT22;40582;53.100;6.686;2023-08-07T10:46:12;20.80;99.10
54684;DHT22;40582;53.100;6.686;2023-08-07T10:48:39;20.60;98.60
54684;DHT22;40582;53.100;6.686;2023-08-07T10:51:06;20.40;98.90
54684;DHT22;40582;53.100;6.686;2023-08-07T10:53:37;20.20;99.20
54684;DHT22;40582;53.100;6.686;2023-08-07T10:56:15;20.60;99.60
54684;DHT22;40582;53.100;6.686;2023-08-07T10:58:41;20.80;98.20
54684;DHT22;40582;53.100;6.686;2023-08-07T11:04:07;20.20;98.00
54684;DHT22;40582;53.100;6.686;2023-08-07T11:06:35;19.90;98.90
54684;DHT22;40582;53.100;6.686;2023-08-07T11:09:09;19.80;99.60
54684;DHT22;40582;53.100;6.686;2023-08-07T11:11:39;19.90;99.80
54684;DHT22;40582;53.100;6.686;2023-08-07T11:14:15;20.10;99.30
54684;DHT22;40582;53.100;6.686;2023-08-07T11:16:42;20.50;96.70
54684;DHT22;40582;53.100;6.686;2023-08-07T11:19:08;20.70;98.30
54684;DHT22;40582;53.100;6.686;2023-08-07T11:21:35;20.70;98.10
54684;DHT22;40582;53.100;6.686;2023-08-07T11:24:01;20.60;97.50
54684;DHT22;40582;53.100;6.686;2023-08-07T11:26:27;20.60;97.50
54684;DHT22;40582;53.100;6.686;2023-08-07T11:28:56;20.90;97.40
54684;DHT22;40582;53.100;6.686;2023-08-07T11:31:23;21.20;97.10
54684;DHT22;40582;53.100;6.686;2023-08-07T11:33:56;21.10;96.70
54684;DHT22;40582;53.100;6.686;2023-08-07T11:36:23;20.80;96.30
54684;DHT22;40582;53.100;6.686;2023-08-07T11:38:49;20.40;97.60
54684;DHT22;40582;53.100;6.686;2023-08-07T11:41:17;20.30;98.20
54684;DHT22;40582;53.100;6.686;2023-08-07T11:43:43;20.50;97.80
54684;DHT22;40582;53.100;6.686;2023-08-07T11:46:11;20.50;97.50
54684;DHT22;40582;53.100;6.686;2023-08-07T11:48:39;20.40;97.90
54684;DHT22;40582;53.100;6.686;2023-08-07T11:51:07;20.50;98.20
54684;DHT22;40582;53.100;6.686;2023-08-07T11:53:38;20.30;98.20
54684;DHT22;40582;53.100;6.686;2023-08-07T11:56:08;20.20;98.30
54684;DHT22;40582;53.100;6.686;2023-08-07T11:58:36;20.00;99.00
54684;DHT22;40582;53.100;6.686;2023-08-07T12:01:06;19.80;99.90
54684;DHT22;40582;53.100;6.686;2023-08-07T12:03:35;19.70;99.90
54684;DHT22;40582;53.100;6.686;2023-08-07T12:06:05;19.60;99.90
54684;DHT22;40582;53.100;6.686;2023-08-07T12:08:35;19.50;99.90
54684;DHT22;40582;53.100;6.686;2023-08-07T12:11:03;19.30;99.90
54684;DHT22;40582;53.100;6.686;2023-08-07T12:13:30;19.10;99.90
54684;DHT22;40582;53.100;6.686;2023-08-07T12:15:57;18.80;99.90
54684;DHT22;40582;53.100;6.686;2023-08-07T12:18:25;18.70;99.90
54684;DHT22;40582;53.100;6.686;2023-08-07T12:20:52;18.80;99.90
54684;DHT22;40582;53.100;6.686;2023-08-07T12:23:20;18.80;99.90
54684;DHT22;40582;53.100;6.686;2023-08-07T12:25:46;18.70;99.90
54684;DHT22;40582;53.100;6.686;2023-08-07T12:28:13;18.60;99.90
54684;DHT22;40582;53.100;6.686;2023-08-07T12:30:39;18.40;99.90
54684;DHT22;40582;53.100;6.686;2023-08-07T12:33:05;18.10;99.90
54684;DHT22;40582;53.100;6.686;2023-08-07T12:35:34;17.80;99.90
54684;DHT22;40582;53.100;6.686;2023-08-07T12:38:00;17.70;99.90
54684;DHT22;40582;53.100;6.686;2023-08-07T12:40:27;17.60;99.90
54684;DHT22;40582;53.100;6.686;2023-08-07T12:42:53;17.70;99.90
54684;DHT22;40582;53.100;6.686;2023-08-07T12:45:18;17.90;99.90
54684;DHT22;40582;53.100;6.686;2023-08-07T12:47:45;18.10;99.90
54684;DHT22;40582;53.100;6.686;2023-08-07T12:50:11;18.40;99.90
54684;DHT22;40582;53.100;6.686;2023-08-07T12:52:37;18.30;99.90
54684;DHT22;40582;53.100;6.686;2023-08-07T12:55:04;18.40;99.90
54684;DHT22;40582;53.100;6.686;2023-08-07T12:57:31;18.40;99.90
54684;DHT22;40582;53.100;6.686;2023-08-07T12:59:57;18.50;99.90
54684;DHT22;40582;53.100;6.686;2023-08-07T13:02:23;18.50;99.90
54684;DHT22;40582;53.100;6.686;2023-08-07T13:04:49;18.70;99.90
54684;DHT22;40582;53.100;6.686;2023-08-07T13:07:14;18.80;99.90
54684;DHT22;40582;53.100;6.686;2023-08-07T13:09:40;18.80;99.90
54684;DHT22;40582;53.100;6.686;2023-08-07T13:12:06;18.90;99.90
54684;DHT22;40582;53.100;6.686;2023-08-07T13:14:32;18.80;99.90
54684;DHT22;40582;53.100;6.686;2023-08-07T13:16:57;19.00;99.90
54684;DHT22;40582;53.100;6.686;2023-08-07T13:19:23;19.10;99.90
54684;DHT22;40582;53.100;6.686;2023-08-07T13:21:49;19.20;99.90
54684;DHT22;40582;53.100;6.686;2023-08-07T13:24:14;19.20;99.90
54684;DHT22;40582;53.100;6.686;2023-08-07T13:26:40;19.30;99.90
54684;DHT22;40582;53.100;6.686;2023-08-07T13:29:11;19.50;99.90
54684;DHT22;40582;53.100;6.686;2023-08-07T13:31:37;19.70;99.90
54684;DHT22;40582;53.100;6.686;2023-08-07T13:34:02;19.90;99.90
54684;DHT22;40582;53.100;6.686;2023-08-07T13:36:33;19.80;99.90
54684;DHT22;40582;53.100;6.686;2023-08-07T13:38:59;19.60;99.90
54684;DHT22;40582;53.100;6.686;2023-08-07T13:41:26;19.30;99.90
54684;DHT22;40582;53.100;6.686;2023-08-07T13:43:52;18.90;99.90
54684;DHT22;40582;53.100;6.686;2023-08-07T13:46:17;18.60;99.90
54684;DHT22;40582;53.100;6.686;2023-08-07T13:48:44;18.30;99.90
54684;DHT22;40582;53.100;6.686;2023-08-07T13:51:10;18.30;99.90
54684;DHT22;40582;53.100;6.686;2023-08-07T13:53:36;18.30;99.90
54684;DHT22;40582;53.100;6.686;2023-08-07T13:56:02;18.50;99.90
54684;DHT22;40582;53.100;6.686;2023-08-07T13:58:28;18.60;99.90
54684;DHT22;40582;53.100;6.686;2023-08-07T14:00:55;18.60;99.90
54684;DHT22;40582;53.100;6.686;2023-08-07T14:03:21;18.70;99.90
54684;DHT22;40582;53.100;6.686;2023-08-07T14:05:47;18.80;99.90
54684;DHT22;40582;53.100;6.686;2023-08-07T14:08:13;19.00;99.90
54684;DHT22;40582;53.100;6.686;2023-08-07T14:10:39;19.10;99.90
54684;DHT22;40582;53.100;6.686;2023-08-07T14:13:06;19.30;99.90
54684;DHT22;40582;53.100;6.686;2023-08-07T14:15:32;19.60;99.90
54684;DHT22;40582;53.100;6.686;2023-08-07T14:17:58;19.90;99.90
54684;DHT22;40582;53.100;6.686;2023-08-07T14:20:27;20.00;99.90
54684;DHT22;40582;53.100;6.686;2023-08-07T14:22:52;19.90;99.90
54684;DHT22;40582;53.100;6.686;2023-08-07T14:25:18;19.90;99.90
54684;DHT22;40582;53.100;6.686;2023-08-07T14:27:47;19.80;99.90
54684;DHT22;40582;53.100;6.686;2023-08-07T14:30:12;19.70;99.90
54684;DHT22;40582;53.100;6.686;2023-08-07T14:32:38;19.60;99.90
54684;DHT22;40582;53.100;6.686;2023-08-07T14:35:04;19.60;99.90
54684;DHT22;40582;53.100;6.686;2023-08-07T14:37:30;19.30;99.90
54684;DHT22;40582;53.100;6.686;2023-08-07T14:39:56;19.10;99.90
54684;DHT22;40582;53.100;6.686;2023-08-07T14:42:23;19.00;99.90
54684;DHT22;40582;53.100;6.686;2023-08-07T14:44:48;19.10;99.90
54684;DHT22;40582;53.100;6.686;2023-08-07T14:47:14;19.20;99.90
54684;DHT22;40582;53.100;6.686;2023-08-07T14:49:40;19.10;99.90
54684;DHT22;40582;53.100;6.686;2023-08-07T14:52:06;19.00;99.90
54684;DHT22;40582;53.100;6.686;2023-08-07T14:54:32;19.00;99.90
54684;DHT22;40582;53.100;6.686;2023-08-07T14:56:58;18.90;99.90
54684;DHT22;40582;53.100;6.686;2023-08-07T14:59:25;18.90;99.90
54684;DHT22;40582;53.100;6.686;2023-08-07T15:01:51;19.00;99.90
54684;DHT22;40582;53.100;6.686;2023-08-07T15:04:16;19.10;99.90
54684;DHT22;40582;53.100;6.686;2023-08-07T15:06:42;19.10;99.90
54684;DHT22;40582;53.100;6.686;2023-08-07T15:09:08;19.00;99.90
54684;DHT22;40582;53.100;6.686;2023-08-07T15:11:35;19.00;99.90
54684;DHT22;40582;53.100;6.686;2023-08-07T15:14:00;19.10;99.90
54684;DHT22;40582;53.100;6.686;2023-08-07T15:16:30;19.00;99.90
54684;DHT22;40582;53.100;6.686;2023-08-07T15:18:55;18.90;99.90
54684;DHT22;40582;53.100;6.686;2023-08-07T15:21:21;18.70;99.90
54684;DHT22;40582;53.100;6.686;2023-08-07T15:23:47;18.60;99.90
54684;DHT22;40582;53.100;6.686;2023-08-07T15:26:13;18.50;99.90
54684;DHT22;40582;53.100;6.686;2023-08-07T15:28:38;18.40;99.90
54684;DHT22;40582;53.100;6.686;2023-08-07T15:31:05;18.30;99.90
54684;DHT22;40582;53.100;6.686;2023-08-07T15:33:30;18.30;99.90
54684;DHT22;40582;53.100;6.686;2023-08-07T15:35:56;18.40;99.90